Flight Track Log - Related Links

Times and Time Zones

All times are in EDT time to prevent confusion due to time zone crossing. See the BWA483 flight status page for this flight to view local times or setup timezone preferences in your user account.

Time Position Orientation Groundspeed Altitude Reporting Facility
EDT Latitude Longitude Course Direction KTS MPH feet Rate Location/Type
Fri 08:27:15 PM 10.5750 -61.3217 143° Southeast  Level Estimated
Fri 08:28:15 PM 10.4933 -61.2593 143° Southeast  Level Estimated
Fri 08:29:15 PM 10.4117 -61.1970 143° Southeast  Level Estimated
Fri 08:30:15 PM 10.3300 -61.1348 143° Southeast  Level Estimated
Fri 08:31:15 PM 10.2483 -61.0726 143° Southeast  Level Estimated
Fri 08:32:15 PM 10.1667 -61.0104 143° Southeast  Level Estimated
Fri 08:33:15 PM 10.0850 -60.9482 143° Southeast  Level Estimated
Fri 08:34:15 PM 10.0033 -60.8861 143° Southeast  Level Estimated
Fri 08:35:15 PM 9.9215 -60.8240 143° Southeast  Level Estimated
Fri 08:36:15 PM 9.8398 -60.7619 143° Southeast  Level Estimated
Fri 08:37:15 PM 9.7581 -60.6999 143° Southeast  Level Estimated
Fri 08:38:15 PM 9.6763 -60.6379 143° Southeast  Level Estimated
Fri 08:39:15 PM 9.5946 -60.5759 143° Southeast  Level Estimated
Fri 08:40:15 PM 9.5128 -60.5140 143° Southeast  Level Estimated
Fri 08:41:15 PM 9.4310 -60.4520 143° Southeast  Level Estimated
Fri 08:42:15 PM 9.3492 -60.3902 143° Southeast  Level Estimated
Fri 08:43:15 PM 9.2674 -60.3283 143° Southeast  Level Estimated
Fri 08:44:15 PM 9.1856 -60.2665 143° Southeast  Level Estimated
Fri 08:45:15 PM 9.1037 -60.2047 143° Southeast  Level Estimated
Fri 08:46:15 PM 9.0219 -60.1429 143° Southeast  Level Estimated
Fri 08:47:15 PM 8.9401 -60.0812 143° Southeast  Level Estimated
Fri 08:48:15 PM 8.8582 -60.0194 143° Southeast  Level Estimated
Fri 08:49:15 PM 8.7763 -59.9577 143° Southeast  Level Estimated
Fri 08:50:15 PM 8.6944 -59.8961 143° Southeast  Level Estimated
Fri 08:51:15 PM 8.6125 -59.8344 143° Southeast  Level Estimated
Fri 08:52:15 PM 8.5307 -59.7728 143° Southeast  Level Estimated
Fri 08:53:15 PM 8.4487 -59.7113 143° Southeast  Level Estimated
Fri 08:54:15 PM 8.3668 -59.6497 143° Southeast  Level Estimated
Fri 08:55:15 PM 8.2849 -59.5882 143° Southeast  Level Estimated
Fri 08:56:15 PM 8.2029 -59.5267 143° Southeast  Level Estimated
Fri 08:57:15 PM 8.1210 -59.4652 143° Southeast  Level Estimated
Fri 08:58:15 PM 8.0391 -59.4037 143° Southeast  Level Estimated
Fri 08:59:15 PM 7.9571 -59.3423 143° Southeast  Level Estimated
Fri 09:00:15 PM 7.8751 -59.2809 143° Southeast  Level Estimated
Fri 09:01:15 PM 7.7931 -59.2195 143° Southeast  Level Estimated
Fri 09:02:15 PM 7.7112 -59.1582 143° Southeast  Level Estimated
Fri 09:03:15 PM 7.6291 -59.0968 143° Southeast  Level Estimated
Fri 09:04:15 PM 7.5471 -59.0355 143° Southeast  Level Estimated
Fri 09:05:15 PM 7.4651 -58.9743 143° Southeast  Level Estimated
Fri 09:06:15 PM 7.3831 -58.9130 143° Southeast  Level Estimated
Fri 09:07:15 PM 7.3011 -58.8517 143° Southeast  Level Estimated
Fri 09:08:15 PM 7.2190 -58.7905 143° Southeast  Level Estimated
Fri 09:09:15 PM 7.1370 -58.7293 144° Southeast  Level Estimated
Fri 09:10:15 PM 7.0549 -58.6682 144° Southeast  Level Estimated
Fri 09:11:15 PM 6.9728 -58.6070 144° Southeast  Level Estimated
Fri 09:12:15 PM 6.8908 -58.5459 144° Southeast  Level Estimated
Fri 09:13:15 PM 6.8087 -58.4848 144° Southeast  Level Estimated
Fri 09:14:15 PM 6.7266 -58.4237 144° Southeast  Level Estimated
Fri 09:15:15 PM 6.6445 -58.3626 144° Southeast  Level Estimated
Fri 09:16:15 PM 6.5624 -58.3016 144° Southeast  Level Estimated
Fri 09:17:15 PM 6.4803 -58.2406 324° Northwest  Level Estimated
Fri 09:18:15 PM 6.5624 -58.3016 144° Southeast  Level Estimated
Fri 09:19:15 PM 6.4803 -58.2406 324° Northwest  Level Estimated
Fri 09:20:15 PM 6.5624 -58.3016 144° Southeast  Level Estimated
Fri 09:21:15 PM 6.4803 -58.2406 324° Northwest  Level Estimated
Fri 09:22:15 PM 6.5624 -58.3016 144° Southeast  Level Estimated
Fri 09:23:15 PM 6.4803 -58.2406 324° Northwest  Level Estimated
Fri 09:24:15 PM 6.5624 -58.3016 144° Southeast  Level Estimated
Fri 09:25:15 PM 6.4803 -58.2406 324° Northwest  Level Estimated
Fri 09:26:15 PM 6.5624 -58.3016 144° Southeast  Level Estimated
Fri 09:27:15 PM 6.4803 -58.2406 324° Northwest  Level Estimated
Fri 09:28:15 PM 6.5624 -58.3016 144° Southeast  Level Estimated
Fri 09:29:15 PM 6.4803 -58.2406 324° Northwest  Level Estimated
Fri 09:30:15 PM 6.5624 -58.3016 144° Southeast  Level Estimated
Fri 09:31:15 PM 6.4803 -58.2406 324° Northwest  Level Estimated
Fri 09:32:15 PM 6.5624 -58.3016 324° Northwest  Level Estimated

Login

Don't have an account? Register now (free) for customized features, flight alerts, and more!